createdAt,value
2018-03-22T00:02:23.986Z,-0.83
2018-03-22T00:04:51.862Z,-0.82
2018-03-22T00:07:19.411Z,-0.80
2018-03-22T00:12:39.688Z,-0.76
2018-03-22T00:15:07.252Z,-0.74
2018-03-22T00:17:34.812Z,-0.76
2018-03-22T00:20:02.419Z,-0.76
2018-03-22T00:22:38.906Z,-0.80
2018-03-22T00:25:06.502Z,-0.79
2018-03-22T00:27:34.055Z,-0.80
2018-03-22T00:30:01.610Z,-0.78
2018-03-22T00:32:35.010Z,-0.72
2018-03-22T00:35:02.565Z,-0.70
2018-03-22T00:37:30.121Z,-0.66
2018-03-22T00:39:57.861Z,-0.70
2018-03-22T00:42:25.410Z,-0.74
2018-03-22T00:44:52.962Z,-0.75
2018-03-22T00:47:20.716Z,-0.77
2018-03-22T00:49:48.268Z,-0.82
2018-03-22T00:52:15.819Z,-0.88
2018-03-22T00:54:43.422Z,-0.92
2018-03-22T00:57:10.994Z,-0.93
2018-03-22T00:59:38.551Z,-0.99
2018-03-22T01:02:06.317Z,-0.96
2018-03-22T01:04:33.857Z,-1.02
2018-03-22T01:07:01.430Z,-1.00
2018-03-22T01:09:29.310Z,-0.94
2018-03-22T01:11:56.875Z,-0.90
2018-03-22T01:14:24.428Z,-0.87
2018-03-22T01:16:52.610Z,-0.91
2018-03-22T01:19:20.165Z,-0.92
2018-03-22T01:21:47.723Z,-0.90
2018-03-22T01:24:15.617Z,-0.91
2018-03-22T01:26:43.169Z,-0.93
2018-03-22T01:29:10.730Z,-0.96
2018-03-22T01:31:38.459Z,-0.94
2018-03-22T01:34:06.012Z,-0.97
2018-03-22T01:36:33.562Z,-0.96
2018-03-22T01:39:01.168Z,-0.94
2018-03-22T01:41:28.726Z,-0.90
2018-03-22T01:43:56.277Z,-0.92
2018-03-22T01:46:24.151Z,-0.92
2018-03-22T01:48:51.710Z,-0.92
2018-03-22T01:51:19.262Z,-0.92
2018-03-22T01:56:39.198Z,-0.84
2018-03-22T01:59:06.758Z,-0.88
2018-03-22T02:01:34.307Z,-0.85
2018-03-22T02:04:02.207Z,-0.78
2018-03-22T02:06:29.754Z,-0.85
2018-03-22T02:08:57.312Z,-0.86
2018-03-22T02:11:25.043Z,-0.82
2018-03-22T02:13:52.590Z,-0.81
2018-03-22T02:16:20.149Z,-0.81
2018-03-22T02:18:47.884Z,-0.82
2018-03-22T02:21:15.431Z,-0.89
2018-03-22T02:23:42.977Z,-0.87
2018-03-22T02:26:10.586Z,-0.80
2018-03-22T02:28:38.138Z,-0.82
2018-03-22T02:31:05.694Z,-0.76
2018-03-22T02:33:33.604Z,-0.76
2018-03-22T02:36:01.159Z,-0.77
2018-03-22T02:38:28.713Z,-0.79
2018-03-22T02:40:56.292Z,-0.82
2018-03-22T02:43:23.835Z,-0.87
2018-03-22T02:45:51.385Z,-0.88
2018-03-22T02:48:19.125Z,-0.82
2018-03-22T02:50:47.293Z,-0.82
2018-03-22T02:53:14.847Z,-0.92
2018-03-22T02:55:42.440Z,-0.98
2018-03-22T02:58:09.991Z,-0.93
2018-03-22T03:00:37.535Z,-0.96
2018-03-22T03:03:05.290Z,-0.89
2018-03-22T03:05:32.842Z,-0.92
2018-03-22T03:08:00.406Z,-0.95
2018-03-22T03:10:27.981Z,-0.94
2018-03-22T03:12:55.530Z,-0.97
2018-03-22T03:15:23.096Z,-0.95
2018-03-22T03:17:50.777Z,-0.95
2018-03-22T03:20:18.331Z,-0.97
2018-03-22T03:22:45.885Z,-1.00
2018-03-22T03:25:14.710Z,-0.97
2018-03-22T03:27:42.266Z,-0.91
2018-03-22T03:30:09.858Z,-0.92
2018-03-22T03:32:37.610Z,-0.94
2018-03-22T03:35:05.163Z,-0.96
2018-03-22T03:37:32.735Z,-0.97
2018-03-22T03:40:00.614Z,-0.94
2018-03-22T03:42:28.194Z,-0.92
2018-03-22T03:44:55.742Z,-0.98
2018-03-22T03:47:23.312Z,-0.92
2018-03-22T03:49:50.864Z,-0.91
2018-03-22T03:52:18.420Z,-0.96
2018-03-22T03:54:46.301Z,-0.98
2018-03-22T03:57:13.857Z,-1.02
2018-03-22T03:59:41.417Z,-1.03
2018-03-22T04:02:09.033Z,-1.00
2018-03-22T04:04:36.589Z,-1.02
2018-03-22T04:07:04.152Z,-1.01
2018-03-22T04:09:31.898Z,-1.03
2018-03-22T04:11:59.471Z,-1.08
2018-03-22T04:14:27.053Z,-1.06
2018-03-22T04:16:54.634Z,-1.06
2018-03-22T04:19:22.179Z,-1.03
2018-03-22T04:21:49.734Z,-0.96
2018-03-22T04:24:17.332Z,-0.96
2018-03-22T04:26:44.900Z,-0.92
2018-03-22T04:29:12.450Z,-0.96
2018-03-22T04:31:40.336Z,-1.02
2018-03-22T04:34:07.911Z,-0.99
2018-03-22T04:36:35.464Z,-0.99
2018-03-22T04:39:03.079Z,-0.99
2018-03-22T04:41:30.638Z,-0.98
2018-03-22T04:43:58.230Z,-1.00
2018-03-22T04:46:25.813Z,-0.99
2018-03-22T04:48:53.375Z,-0.99
2018-03-22T04:51:20.927Z,-1.06
2018-03-22T04:53:48.516Z,-1.02
2018-03-22T04:56:16.075Z,-0.99
2018-03-22T04:58:43.657Z,-0.92
2018-03-22T05:01:11.261Z,-0.87
2018-03-22T05:03:38.808Z,-1.02
2018-03-22T05:06:06.367Z,-1.00
2018-03-22T05:08:33.974Z,-1.13
2018-03-22T05:11:01.523Z,-1.05
2018-03-22T05:13:29.103Z,-1.05
2018-03-22T05:15:56.685Z,-0.97
2018-03-22T05:18:24.247Z,-0.91
2018-03-22T05:20:51.949Z,-0.96
2018-03-22T05:23:19.649Z,-0.88
2018-03-22T05:25:48.060Z,-0.85
2018-03-22T05:28:15.636Z,-0.81
2018-03-22T05:30:43.225Z,-0.81
2018-03-22T05:33:10.796Z,-0.71
2018-03-22T05:35:38.354Z,-0.70
2018-03-22T05:38:06.084Z,-0.64
2018-03-22T05:40:33.655Z,-0.62
2018-03-22T05:43:01.231Z,-0.59
2018-03-22T05:45:28.829Z,-0.58
2018-03-22T05:47:56.378Z,-0.57
2018-03-22T05:50:23.951Z,-0.62
2018-03-22T05:52:51.544Z,-0.59
2018-03-22T05:58:12.050Z,-0.45
2018-03-22T06:00:39.601Z,-0.42
2018-03-22T06:03:07.168Z,-0.44
2018-03-22T06:05:34.919Z,-0.61
2018-03-22T06:08:02.472Z,-0.61
2018-03-22T06:10:30.048Z,-0.60
2018-03-22T06:12:57.630Z,-0.57
2018-03-22T06:15:25.183Z,-0.60
2018-03-22T06:17:52.741Z,-0.67
2018-03-22T06:20:20.425Z,-0.65
2018-03-22T06:22:47.974Z,-0.73
2018-03-22T06:25:15.518Z,-0.74
2018-03-22T06:27:43.066Z,-0.77
2018-03-22T06:30:10.618Z,-0.79
2018-03-22T06:32:38.182Z,-0.75
2018-03-22T06:35:05.775Z,-0.78
2018-03-22T06:37:33.349Z,-0.94
2018-03-22T06:40:00.907Z,-0.86
2018-03-22T06:42:28.642Z,-0.79
2018-03-22T06:44:56.196Z,-0.85
2018-03-22T06:47:23.766Z,-0.91
2018-03-22T06:49:51.500Z,-0.86
2018-03-22T06:52:19.070Z,-0.82
2018-03-22T06:54:46.630Z,-0.82
2018-03-22T06:57:14.319Z,-0.78
2018-03-22T06:59:41.889Z,-0.76
2018-03-22T07:02:09.450Z,-0.87
2018-03-22T07:04:37.146Z,-0.87
2018-03-22T07:07:04.723Z,-1.00
2018-03-22T07:09:32.314Z,-1.19
2018-03-22T07:12:00.024Z,-1.23
2018-03-22T07:14:27.588Z,-1.22
2018-03-22T07:16:55.137Z,-1.26
2018-03-22T07:19:22.743Z,-1.28
2018-03-22T07:21:50.307Z,-1.35
2018-03-22T07:24:17.873Z,-1.30
2018-03-22T07:26:45.748Z,-1.26
2018-03-22T07:29:13.304Z,-1.37
2018-03-22T07:31:40.885Z,-1.52
2018-03-22T07:36:41.795Z,-1.35
2018-03-22T07:39:09.407Z,-1.30
2018-03-22T07:41:36.964Z,-1.19
2018-03-22T07:44:10.029Z,-1.01
2018-03-22T07:46:37.598Z,-0.97
2018-03-22T07:49:05.156Z,-0.86
2018-03-22T07:51:32.766Z,-0.77
2018-03-22T07:54:00.373Z,-0.74
2018-03-22T07:56:27.927Z,-0.65
2018-03-22T07:58:55.559Z,-0.58
2018-03-22T08:01:23.112Z,-0.55
2018-03-22T08:03:50.668Z,-0.60
2018-03-22T08:06:18.244Z,-0.64
2018-03-22T08:08:45.799Z,-0.59
2018-03-22T08:11:13.363Z,-0.61
2018-03-22T08:13:41.961Z,-0.54
2018-03-22T08:16:09.588Z,-0.39
2018-03-22T08:18:37.151Z,-0.35
2018-03-22T08:21:04.926Z,-0.32
2018-03-22T08:23:32.482Z,-0.28
2018-03-22T08:26:00.043Z,-0.25
2018-03-22T08:28:27.598Z,-0.18
2018-03-22T08:30:55.164Z,-0.26
2018-03-22T08:33:22.777Z,-0.19
2018-03-22T08:35:50.368Z,-0.11
2018-03-22T08:38:17.924Z,-0.11
2018-03-22T08:40:45.614Z,-0.04
2018-03-22T08:43:13.180Z,-0.13
2018-03-22T08:45:40.752Z,-0.20
2018-03-22T08:48:08.341Z,-0.28
2018-03-22T08:50:35.898Z,-0.35
2018-03-22T08:53:03.495Z,-0.30
2018-03-22T08:55:34.919Z,-0.36
2018-03-22T08:58:02.478Z,-0.38
2018-03-22T09:00:30.064Z,-0.45
2018-03-22T09:02:57.963Z,-0.51
2018-03-22T09:05:25.568Z,-0.65
2018-03-22T09:07:53.118Z,-0.67
2018-03-22T09:10:20.746Z,-0.61
2018-03-22T09:12:48.308Z,-0.62
2018-03-22T09:15:15.872Z,-0.72
2018-03-22T09:17:43.452Z,-0.79
2018-03-22T09:23:03.728Z,-0.79
2018-03-22T09:25:31.307Z,-0.90
2018-03-22T09:27:59.646Z,-0.81
2018-03-22T09:30:27.239Z,-0.93
2018-03-22T09:32:54.789Z,-0.74
2018-03-22T09:35:22.348Z,-0.71
2018-03-22T09:37:50.027Z,-0.58
2018-03-22T09:40:17.580Z,-0.62
2018-03-22T09:42:45.152Z,-0.53
2018-03-22T09:45:12.751Z,-0.41
2018-03-22T09:47:40.308Z,-0.54
2018-03-22T09:50:07.882Z,-0.64
2018-03-22T09:52:35.922Z,-0.66
2018-03-22T09:55:03.514Z,-0.66
2018-03-22T09:57:31.105Z,-0.66
2018-03-22T09:59:58.986Z,-0.67
2018-03-22T10:02:26.538Z,-0.72
2018-03-22T10:04:54.094Z,-0.73
2018-03-22T10:07:21.772Z,-0.75
2018-03-22T10:09:49.334Z,-0.74
2018-03-22T10:12:16.898Z,-0.74
2018-03-22T10:14:44.496Z,-0.75
2018-03-22T10:17:12.051Z,-0.65
2018-03-22T10:19:39.642Z,-0.65
2018-03-22T10:22:07.223Z,-0.57
2018-03-22T10:24:34.791Z,-0.54
2018-03-22T10:27:05.311Z,-0.52
2018-03-22T10:29:32.877Z,-0.51
2018-03-22T10:32:00.430Z,-0.55
2018-03-22T10:34:28.300Z,-0.55
2018-03-22T10:36:55.869Z,-0.55
2018-03-22T10:39:23.430Z,-0.52
2018-03-22T10:41:51.123Z,-0.53
2018-03-22T10:44:18.698Z,-0.59
2018-03-22T10:46:46.263Z,-0.58
2018-03-22T10:49:13.868Z,-0.54
2018-03-22T10:51:41.431Z,-0.50
2018-03-22T10:54:09.001Z,-0.37
2018-03-22T10:56:36.602Z,-0.20
2018-03-22T11:02:00.991Z,0.02
2018-03-22T11:04:28.586Z,0.16
2018-03-22T11:06:56.147Z,0.26
2018-03-22T11:09:23.740Z,0.24
2018-03-22T11:11:51.300Z,0.37
2018-03-22T11:14:18.851Z,0.51
2018-03-22T11:16:46.520Z,0.53
2018-03-22T11:19:14.067Z,0.57
2018-03-22T11:21:41.618Z,0.58
2018-03-22T11:24:09.308Z,0.58
2018-03-22T11:26:36.868Z,0.66
2018-03-22T11:29:04.411Z,0.71
2018-03-22T11:31:32.119Z,0.60
2018-03-22T11:33:59.668Z,0.52
2018-03-22T11:36:27.209Z,0.41
2018-03-22T11:38:54.787Z,0.36
2018-03-22T11:41:22.367Z,0.23
2018-03-22T11:43:49.899Z,0.23
2018-03-22T11:46:17.474Z,0.10
2018-03-22T11:48:45.015Z,0.07
2018-03-22T11:51:12.547Z,0.05
2018-03-22T11:53:40.191Z,0.08
2018-03-22T11:56:07.718Z,0.09
2018-03-22T11:58:36.092Z,0.07
2018-03-22T12:01:03.702Z,0.10
2018-03-22T12:03:31.262Z,0.11
2018-03-22T12:05:58.808Z,0.07
2018-03-22T12:08:26.383Z,0.09
2018-03-22T12:10:53.922Z,0.07
2018-03-22T12:13:21.472Z,0.03
2018-03-22T12:15:49.178Z,0.10
2018-03-22T12:18:16.750Z,0.10
2018-03-22T12:20:44.314Z,0.15
2018-03-22T12:23:12.039Z,0.12
2018-03-22T12:25:39.588Z,0.14
2018-03-22T12:28:07.120Z,0.14
2018-03-22T12:30:34.668Z,0.13
2018-03-22T12:33:02.215Z,0.14
2018-03-22T12:35:29.930Z,0.12
2018-03-22T12:37:57.491Z,0.13
2018-03-22T12:40:25.035Z,0.19
2018-03-22T12:42:52.607Z,0.20
2018-03-22T12:45:20.152Z,0.27
2018-03-22T12:47:47.704Z,0.32
2018-03-22T12:50:15.388Z,0.38
2018-03-22T12:52:42.950Z,0.35
2018-03-22T12:55:10.493Z,0.34
2018-03-22T12:57:38.085Z,0.30
2018-03-22T13:00:05.753Z,0.28
2018-03-22T13:02:33.265Z,0.30
2018-03-22T13:05:00.849Z,0.23
2018-03-22T13:07:28.391Z,0.09
2018-03-22T13:09:55.969Z,0.07
2018-03-22T13:12:23.554Z,0.06
2018-03-22T13:14:51.182Z,-0.03
2018-03-22T13:17:18.727Z,-0.07
2018-03-22T13:19:46.911Z,-0.13
2018-03-22T13:22:14.478Z,-0.15
2018-03-22T13:24:42.060Z,-0.32
2018-03-22T13:27:09.698Z,-0.35
2018-03-22T13:29:37.246Z,-0.39
2018-03-22T13:32:04.815Z,-0.52
2018-03-22T13:34:32.435Z,-0.73
2018-03-22T13:37:00.025Z,-0.91
2018-03-22T13:39:27.586Z,-0.93
2018-03-22T13:41:55.583Z,-0.96
2018-03-22T13:44:23.161Z,-0.98
2018-03-22T13:46:50.750Z,-0.91
2018-03-22T13:49:18.392Z,-0.92
2018-03-22T13:51:45.941Z,-0.85
2018-03-22T13:54:13.513Z,-0.94
2018-03-22T13:56:41.394Z,-0.90
2018-03-22T13:59:08.966Z,-0.95
2018-03-22T14:01:36.562Z,-1.09
2018-03-22T14:04:04.140Z,-1.00
2018-03-22T14:06:31.703Z,-1.06
2018-03-22T14:08:59.276Z,-1.16
2018-03-22T14:11:26.979Z,-1.13
2018-03-22T14:13:54.538Z,-1.06
2018-03-22T14:16:22.086Z,-1.08
2018-03-22T14:18:49.810Z,-1.21
2018-03-22T14:21:17.354Z,-1.31
2018-03-22T14:23:44.907Z,-1.36
2018-03-22T14:26:12.508Z,-1.42
2018-03-22T14:28:40.066Z,-1.42
2018-03-22T14:31:07.622Z,-1.43
2018-03-22T14:33:35.311Z,-1.44
2018-03-22T14:36:02.872Z,-1.40
2018-03-22T14:38:30.440Z,-1.32
2018-03-22T14:40:58.049Z,-1.30
2018-03-22T14:43:25.604Z,-1.41
2018-03-22T14:45:53.167Z,-1.41
2018-03-22T14:48:20.893Z,-1.44
2018-03-22T14:50:48.448Z,-1.46
2018-03-22T14:53:16.013Z,-1.48
2018-03-22T14:55:43.607Z,-1.44
2018-03-22T14:58:11.177Z,-1.32
2018-03-22T15:00:38.751Z,-1.24
2018-03-22T15:03:06.625Z,-1.13
2018-03-22T15:05:34.176Z,-1.03
2018-03-22T15:08:01.728Z,-0.92
2018-03-22T15:10:48.538Z,-0.86
2018-03-22T15:13:16.116Z,-0.86
2018-03-22T15:15:43.667Z,-0.81
2018-03-22T15:18:11.343Z,-0.79
2018-03-22T15:20:38.897Z,-0.75
2018-03-22T15:23:06.455Z,-0.72
2018-03-22T15:25:34.056Z,-0.70
2018-03-22T15:28:01.613Z,-0.69
2018-03-22T15:30:29.164Z,-0.69
2018-03-22T15:32:56.765Z,-0.69
2018-03-22T15:35:24.358Z,-0.70
2018-03-22T15:37:51.902Z,-0.68
2018-03-22T15:40:19.594Z,-0.71
2018-03-22T15:42:47.161Z,-0.72
2018-03-22T15:45:14.704Z,-0.82
2018-03-22T15:47:42.309Z,-0.84
2018-03-22T15:50:09.856Z,-0.89
2018-03-22T15:52:37.422Z,-0.87
2018-03-22T15:55:05.032Z,-0.91
2018-03-22T15:57:32.616Z,-0.93
2018-03-22T16:00:00.173Z,-0.99
2018-03-22T16:02:27.755Z,-0.97
2018-03-22T16:04:55.306Z,-0.99
2018-03-22T16:07:22.855Z,-1.00
2018-03-22T16:09:50.723Z,-1.02
2018-03-22T16:12:18.270Z,-1.04
2018-03-22T16:14:45.810Z,-1.06
2018-03-22T16:17:13.503Z,-1.08
2018-03-22T16:19:50.957Z,-1.16
2018-03-22T16:22:18.683Z,-1.18
2018-03-22T16:24:46.226Z,-1.18
2018-03-22T16:27:13.779Z,-1.21
2018-03-22T16:29:41.338Z,-1.25
2018-03-22T16:32:08.892Z,-1.26
2018-03-22T16:34:36.466Z,-1.28
2018-03-22T16:37:04.011Z,-1.28
2018-03-22T16:39:31.592Z,-1.30
2018-03-22T16:41:59.326Z,-1.33
2018-03-22T16:44:26.899Z,-1.30
2018-03-22T16:46:54.481Z,-1.32
2018-03-22T16:49:22.145Z,-1.39
2018-03-22T16:51:49.713Z,-1.42
2018-03-22T16:54:17.272Z,-1.46
2018-03-22T16:56:44.991Z,-1.47
2018-03-22T16:59:12.568Z,-1.46
2018-03-22T17:01:40.164Z,-1.43
2018-03-22T17:04:07.765Z,-1.47
2018-03-22T17:06:35.318Z,-1.52
2018-03-22T17:09:02.995Z,-1.48
2018-03-22T17:11:30.610Z,-1.48
2018-03-22T17:13:58.218Z,-1.47
2018-03-22T17:16:25.873Z,-1.49
2018-03-22T17:18:53.632Z,-1.46
2018-03-22T17:21:21.177Z,-1.49
2018-03-22T17:23:48.744Z,-1.53
2018-03-22T17:26:16.343Z,-1.55
2018-03-22T17:28:43.911Z,-1.53
2018-03-22T17:31:11.474Z,-1.54
2018-03-22T17:33:39.143Z,-1.50
2018-03-22T17:36:06.696Z,-1.52
2018-03-22T17:38:34.283Z,-1.48
2018-03-22T17:41:01.887Z,-1.48
2018-03-22T17:43:29.987Z,-1.51
2018-03-22T17:45:57.549Z,-1.57
2018-03-22T17:48:25.209Z,-1.56
2018-03-22T17:50:52.807Z,-1.56
2018-03-22T17:53:20.355Z,-1.53
2018-03-22T17:55:47.945Z,-1.52
2018-03-22T17:58:15.550Z,-1.53
2018-03-22T18:00:43.149Z,-1.52
2018-03-22T18:03:11.091Z,-1.51
2018-03-22T18:05:38.699Z,-1.52
2018-03-22T18:08:06.264Z,-1.49
2018-03-22T18:10:34.000Z,-1.51
2018-03-22T18:13:01.645Z,-1.58
2018-03-22T18:15:29.264Z,-1.67
2018-03-22T18:17:56.866Z,-1.64
2018-03-22T18:20:24.442Z,-1.68
2018-03-22T18:22:52.056Z,-1.67
2018-03-22T18:25:19.645Z,-1.67
2018-03-22T18:27:47.220Z,-1.68
2018-03-22T18:30:14.796Z,-1.68
2018-03-22T18:32:42.544Z,-1.69
2018-03-22T18:35:10.106Z,-1.69
2018-03-22T18:37:37.753Z,-1.67
2018-03-22T18:40:05.492Z,-1.62
2018-03-22T18:42:33.076Z,-1.63
2018-03-22T18:45:00.639Z,-1.61
2018-03-22T18:47:28.599Z,-1.62
2018-03-22T18:49:56.163Z,-1.64
2018-03-22T18:52:23.727Z,-1.63
2018-03-22T18:54:51.503Z,-1.61
2018-03-22T18:57:19.072Z,-1.65
2018-03-22T18:59:46.650Z,-1.67
2018-03-22T19:02:14.348Z,-1.69
2018-03-22T19:07:34.999Z,-1.72
2018-03-22T19:10:02.570Z,-1.68
2018-03-22T19:12:30.147Z,-1.73
2018-03-22T19:14:57.782Z,-1.75
2018-03-22T19:17:25.336Z,-1.77
2018-03-22T19:19:52.922Z,-1.78
2018-03-22T19:25:13.375Z,-1.78
2018-03-22T19:27:40.948Z,-1.78
2018-03-22T19:30:08.777Z,-1.75
2018-03-22T19:32:36.484Z,-1.78
2018-03-22T19:35:04.133Z,-1.79
2018-03-22T19:37:31.741Z,-1.81
2018-03-22T19:39:59.531Z,-1.80
2018-03-22T19:42:27.213Z,-1.81
2018-03-22T19:44:54.896Z,-1.83
2018-03-22T19:47:22.647Z,-1.85
2018-03-22T19:49:50.248Z,-1.84
2018-03-22T19:52:17.860Z,-1.83
2018-03-22T19:54:45.899Z,-1.81
2018-03-22T19:57:13.502Z,-1.80
2018-03-22T19:59:41.066Z,-1.81
2018-03-22T20:02:08.696Z,-1.84
2018-03-22T20:04:36.355Z,-1.82
2018-03-22T20:07:03.953Z,-1.83
2018-03-22T20:09:31.600Z,-1.83
2018-03-22T20:11:59.174Z,-1.81
2018-03-22T20:14:26.803Z,-1.81
2018-03-22T20:16:54.606Z,-1.80
2018-03-22T20:19:22.180Z,-1.76
2018-03-22T20:21:49.756Z,-1.74
2018-03-22T20:24:17.506Z,-1.75
2018-03-22T20:26:45.090Z,-1.73
2018-03-22T20:29:12.653Z,-1.71
2018-03-22T20:31:40.374Z,-1.69
2018-03-22T20:34:08.031Z,-1.70
2018-03-22T20:36:35.640Z,-1.73
2018-03-22T20:39:03.274Z,-1.72
2018-03-22T20:41:30.882Z,-1.69
2018-03-22T20:43:58.448Z,-1.77
2018-03-22T20:49:18.926Z,-1.79
2018-03-22T20:51:46.475Z,-1.82
2018-03-22T20:54:14.062Z,-1.81
2018-03-22T20:56:41.647Z,-1.83
2018-03-22T20:59:09.227Z,-1.80
2018-03-22T21:01:36.848Z,-1.77
2018-03-22T21:04:04.659Z,-1.81
2018-03-22T21:06:32.247Z,-1.85
2018-03-22T21:08:59.791Z,-1.91
2018-03-22T21:11:27.361Z,-1.91
2018-03-22T21:13:55.680Z,-1.92
2018-03-22T21:16:24.078Z,-1.88
2018-03-22T21:18:51.759Z,-1.85
2018-03-22T21:21:19.308Z,-1.85
2018-03-22T21:23:46.866Z,-1.86
2018-03-22T21:26:14.445Z,-1.80
2018-03-22T21:28:42.764Z,-1.82
2018-03-22T21:31:10.330Z,-1.81
2018-03-22T21:33:37.907Z,-1.83
2018-03-22T21:36:05.510Z,-1.83
2018-03-22T21:38:33.057Z,-1.84
2018-03-22T21:41:00.641Z,-1.81
2018-03-22T21:43:28.217Z,-1.82
2018-03-22T21:45:55.806Z,-1.85
2018-03-22T21:48:23.399Z,-1.85
2018-03-22T21:50:51.031Z,-1.86
2018-03-22T21:53:18.583Z,-1.83
2018-03-22T21:55:46.162Z,-1.77
2018-03-22T21:58:13.715Z,-1.75
2018-03-22T22:00:41.267Z,-1.71
2018-03-22T22:03:15.383Z,-1.67
2018-03-22T22:05:42.939Z,-1.68
2018-03-22T22:08:10.501Z,-1.65
2018-03-22T22:10:38.074Z,-1.65
2018-03-22T22:13:05.623Z,-1.63
2018-03-22T22:15:33.171Z,-1.62
2018-03-22T22:18:01.046Z,-1.66
2018-03-22T22:20:28.593Z,-1.67
2018-03-22T22:22:56.162Z,-1.68
2018-03-22T22:25:24.039Z,-1.71
2018-03-22T22:27:51.592Z,-1.74
2018-03-22T22:30:19.179Z,-1.70
2018-03-22T22:32:46.842Z,-1.69
2018-03-22T22:35:14.399Z,-1.73
2018-03-22T22:37:41.950Z,-1.72
2018-03-22T22:40:09.525Z,-1.70
2018-03-22T22:42:37.104Z,-1.67
2018-03-22T22:45:04.638Z,-1.70
2018-03-22T22:47:32.220Z,-1.73
2018-03-22T22:49:59.763Z,-1.70
2018-03-22T22:52:27.308Z,-1.73
2018-03-22T22:54:54.903Z,-1.80
2018-03-22T22:57:22.460Z,-1.79
2018-03-22T22:59:50.002Z,-1.77
2018-03-22T23:05:10.332Z,-1.80
2018-03-22T23:07:37.877Z,-1.83
2018-03-22T23:10:05.422Z,-1.90
2018-03-22T23:12:33.014Z,-2.01
2018-03-22T23:15:00.555Z,-1.97
2018-03-22T23:17:28.092Z,-1.99
2018-03-22T23:19:55.659Z,-2.01
2018-03-22T23:22:23.206Z,-2.07
2018-03-22T23:24:51.700Z,-2.13
2018-03-22T23:27:19.282Z,-2.16
2018-03-22T23:29:46.835Z,-2.20
2018-03-22T23:32:14.390Z,-2.24
2018-03-22T23:34:42.068Z,-2.26
2018-03-22T23:37:09.641Z,-2.27
2018-03-22T23:39:37.177Z,-2.30
2018-03-22T23:42:04.770Z,-2.29
2018-03-22T23:44:32.324Z,-2.29
2018-03-22T23:46:59.874Z,-2.28
2018-03-22T23:49:27.597Z,-2.35
2018-03-22T23:51:55.142Z,-2.41
2018-03-22T23:54:22.678Z,-2.46
2018-03-22T23:56:50.270Z,-2.47
2018-03-22T23:59:18.412Z,-2.47
